createdAt,value
2019-04-16T00:00:59.485Z,65.80
2019-04-16T00:03:31.227Z,66.10
2019-04-16T00:06:05.492Z,66.60
2019-04-16T00:08:37.943Z,66.70
2019-04-16T00:11:09.162Z,66.90
2019-04-16T00:13:40.363Z,66.30
2019-04-16T00:16:12.691Z,66.20
2019-04-16T00:18:41.236Z,66.60
2019-04-16T00:21:15.016Z,66.50
2019-04-16T00:23:46.966Z,67.10
2019-04-16T00:26:16.579Z,66.90
2019-04-16T00:28:46.154Z,67.00
2019-04-16T00:31:15.772Z,66.50
2019-04-16T00:33:45.346Z,67.60
2019-04-16T00:36:15.380Z,67.70
2019-04-16T00:38:46.220Z,67.80
2019-04-16T00:41:15.792Z,67.30
2019-04-16T00:43:45.374Z,67.60
2019-04-16T00:46:14.941Z,67.60
2019-04-16T00:48:44.517Z,67.40
2019-04-16T00:51:14.171Z,67.30
2019-04-16T00:53:43.757Z,68.70
2019-04-16T00:56:15.877Z,68.40
2019-04-16T00:58:44.637Z,68.30
2019-04-16T01:01:14.369Z,68.10
2019-04-16T01:03:44.215Z,69.00
2019-04-16T01:06:13.850Z,68.90
2019-04-16T01:08:53.882Z,69.50
2019-04-16T01:11:14.985Z,69.70
2019-04-16T01:13:45.213Z,69.90
2019-04-16T01:16:15.409Z,70.20
2019-04-16T01:18:44.972Z,70.30
2019-04-16T01:21:14.971Z,70.80
2019-04-16T01:23:48.554Z,71.00
2019-04-16T01:26:15.922Z,70.90
2019-04-16T01:28:48.020Z,71.40
2019-04-16T01:31:19.964Z,71.70
2019-04-16T01:34:10.965Z,71.80
2019-04-16T01:37:00.858Z,71.80
2019-04-16T01:39:34.978Z,71.90
2019-04-16T01:42:04.699Z,72.00
2019-04-16T01:44:34.271Z,71.80
2019-04-16T01:47:05.178Z,71.90
2019-04-16T01:49:34.786Z,71.70
2019-04-16T01:52:04.365Z,71.70
2019-04-16T01:54:33.943Z,71.30
2019-04-16T01:57:05.055Z,69.90
2019-04-16T01:59:35.808Z,69.40
2019-04-16T02:02:06.477Z,70.60
2019-04-16T02:04:36.289Z,71.30
2019-04-16T02:07:05.989Z,72.80
2019-04-16T02:09:35.749Z,73.40
2019-04-16T02:12:05.746Z,73.20
2019-04-16T02:14:35.423Z,73.30
2019-04-16T02:17:05.076Z,73.20
2019-04-16T02:19:34.637Z,72.20
2019-04-16T02:22:04.225Z,72.20
2019-04-16T02:24:33.865Z,72.30
2019-04-16T02:27:04.732Z,72.70
2019-04-16T02:29:34.288Z,72.10
2019-04-16T02:32:03.950Z,73.10
2019-04-16T02:34:33.527Z,73.70
2019-04-16T02:37:04.648Z,74.50
2019-04-16T02:39:47.513Z,74.50
2019-04-16T02:42:05.560Z,74.50
2019-04-16T02:44:35.285Z,73.80
2019-04-16T02:47:08.528Z,73.50
2019-04-16T02:49:38.513Z,73.40
2019-04-16T02:52:18.713Z,73.10
2019-04-16T02:54:49.924Z,73.10
2019-04-16T02:57:26.760Z,72.80
2019-04-16T02:59:55.732Z,72.90
2019-04-16T03:02:29.393Z,72.60
2019-04-16T03:05:06.595Z,72.40
2019-04-16T03:07:36.154Z,72.30
2019-04-16T03:10:06.522Z,72.10
2019-04-16T03:12:36.188Z,72.80
2019-04-16T03:15:07.853Z,72.00
2019-04-16T03:17:45.260Z,71.90
2019-04-16T03:20:20.975Z,71.70
2019-04-16T03:22:49.092Z,71.00
2019-04-16T03:25:18.747Z,70.10
2019-04-16T03:27:48.321Z,70.50
2019-04-16T03:30:17.970Z,69.70
2019-04-16T03:32:49.363Z,69.40
2019-04-16T03:35:19.143Z,69.00
2019-04-16T03:37:48.713Z,68.90
2019-04-16T03:40:24.103Z,69.00
2019-04-16T03:42:49.594Z,68.80
2019-04-16T03:45:19.232Z,68.20
2019-04-16T03:47:51.340Z,68.60
2019-04-16T03:50:20.106Z,68.80
2019-04-16T03:52:49.678Z,69.70
2019-04-16T03:55:19.253Z,70.00
2019-04-16T03:57:48.863Z,70.70
2019-04-16T04:00:18.747Z,71.00
2019-04-16T04:02:48.310Z,70.70
2019-04-16T04:05:17.897Z,70.00
2019-04-16T04:07:47.462Z,70.90
2019-04-16T04:10:30.017Z,70.50
2019-04-16T04:12:48.509Z,71.40
2019-04-16T04:15:18.067Z,71.00
2019-04-16T04:17:48.074Z,71.50
2019-04-16T04:20:18.924Z,71.80
2019-04-16T04:22:48.803Z,72.20
2019-04-16T04:25:19.450Z,72.00
2019-04-16T04:27:49.044Z,72.30
2019-04-16T04:30:20.391Z,72.40
2019-04-16T04:32:49.951Z,72.70
2019-04-16T04:35:22.047Z,72.70
2019-04-16T04:37:50.838Z,73.00
2019-04-16T04:40:20.401Z,73.00
2019-04-16T04:42:49.970Z,73.00
2019-04-16T04:45:19.548Z,72.50
2019-04-16T04:47:51.613Z,72.10
2019-04-16T04:50:20.693Z,71.40
2019-04-16T04:52:50.217Z,71.70
2019-04-16T04:55:19.885Z,72.50
2019-04-16T04:57:49.430Z,73.70
2019-04-16T05:00:20.503Z,73.80
2019-04-16T05:02:50.163Z,74.10
2019-04-16T05:05:25.623Z,74.70
2019-04-16T05:07:59.686Z,74.70
2019-04-16T05:10:26.785Z,73.40
2019-04-16T05:12:56.356Z,73.30
2019-04-16T05:15:26.447Z,73.40
2019-04-16T05:17:57.216Z,72.90
2019-04-16T05:20:29.703Z,72.80
2019-04-16T05:22:58.243Z,72.80
2019-04-16T05:25:32.976Z,72.90
2019-04-16T05:27:59.101Z,72.80
2019-04-16T05:30:28.716Z,75.90
2019-04-16T05:32:58.707Z,75.00
2019-04-16T05:35:28.269Z,74.00
2019-04-16T05:37:57.831Z,74.70
2019-04-16T05:40:34.419Z,73.50
2019-04-16T05:43:00.248Z,72.80
2019-04-16T05:45:29.816Z,73.30
2019-04-16T05:48:00.489Z,72.40
2019-04-16T05:50:30.070Z,70.60
2019-04-16T05:52:59.633Z,70.20
2019-04-16T05:55:39.802Z,70.40
2019-04-16T05:58:09.365Z,70.20
2019-04-16T06:00:43.362Z,69.60
2019-04-16T06:03:12.925Z,69.80
2019-04-16T06:05:43.509Z,70.50
2019-04-16T06:08:14.500Z,70.30
2019-04-16T06:10:50.022Z,70.20
2019-04-16T06:13:28.034Z,70.00
2019-04-16T06:16:11.218Z,70.40
2019-04-16T06:18:51.122Z,70.10
2019-04-16T06:21:32.555Z,69.90
2019-04-16T06:24:15.733Z,68.60
2019-04-16T06:27:02.949Z,68.30
2019-04-16T06:29:36.840Z,67.40
2019-04-16T06:32:23.948Z,67.20
2019-04-16T06:35:11.325Z,67.30
2019-04-16T06:37:45.608Z,66.20
2019-04-16T06:40:32.794Z,66.00
2019-04-16T06:43:04.294Z,65.90
2019-04-16T06:45:37.178Z,65.50
2019-04-16T06:48:14.685Z,65.50
2019-04-16T06:50:47.039Z,64.80
2019-04-16T06:53:24.988Z,65.70
2019-04-16T06:55:56.476Z,65.20
2019-04-16T06:58:28.386Z,65.70
2019-04-16T07:01:17.707Z,64.30
2019-04-16T07:03:58.310Z,63.60
2019-04-16T07:06:44.083Z,63.80
2019-04-16T07:09:25.262Z,63.00
2019-04-16T07:11:54.992Z,64.50
2019-04-16T07:14:24.712Z,63.60
2019-04-16T07:16:54.323Z,63.00
2019-04-16T07:19:23.878Z,62.80
2019-04-16T07:21:53.528Z,62.50
2019-04-16T07:24:23.777Z,63.80
2019-04-16T07:26:56.352Z,62.30
2019-04-16T07:29:33.397Z,62.20
2019-04-16T07:32:21.298Z,62.00
2019-04-16T07:34:56.753Z,60.20
2019-04-16T07:37:43.788Z,60.90
2019-04-16T07:40:15.899Z,59.30
2019-04-16T07:42:57.929Z,59.80
2019-04-16T07:45:28.992Z,59.40
2019-04-16T07:48:06.414Z,59.10
2019-04-16T07:50:44.498Z,58.80
2019-04-16T07:53:24.429Z,59.00
2019-04-16T07:55:55.729Z,58.70
2019-04-16T07:58:25.293Z,58.20
2019-04-16T08:00:54.956Z,57.90
2019-04-16T08:03:26.816Z,57.90
2019-04-16T08:05:56.684Z,58.70
2019-04-16T08:08:26.253Z,58.50
2019-04-16T08:10:56.105Z,59.50
2019-04-16T08:13:27.351Z,58.80
2019-04-16T08:15:57.544Z,59.30
2019-04-16T08:18:27.278Z,58.10
2019-04-16T08:21:01.980Z,58.20
2019-04-16T08:23:29.938Z,57.50
2019-04-16T08:26:04.046Z,57.40
2019-04-16T08:28:32.540Z,56.90
2019-04-16T08:31:02.988Z,58.10
2019-04-16T08:33:32.579Z,57.30
2019-04-16T08:36:02.183Z,57.70
2019-04-16T08:38:34.882Z,57.10
2019-04-16T08:41:04.662Z,57.30
2019-04-16T08:43:34.229Z,57.10
2019-04-16T08:46:03.884Z,56.30
2019-04-16T08:48:33.460Z,57.00
2019-04-16T08:51:05.212Z,57.30
2019-04-16T08:53:35.728Z,57.60
2019-04-16T08:56:05.543Z,57.30
2019-04-16T08:58:35.644Z,56.20
2019-04-16T09:01:08.603Z,55.40
2019-04-16T09:03:38.192Z,55.60
2019-04-16T09:06:13.029Z,55.80
2019-04-16T09:08:53.132Z,55.80
2019-04-16T09:11:23.907Z,56.70
2019-04-16T09:13:57.618Z,57.20
2019-04-16T09:16:27.363Z,56.20
2019-04-16T09:19:02.564Z,55.00
2019-04-16T09:21:32.087Z,56.00
2019-04-16T09:24:19.136Z,55.40
2019-04-16T09:26:56.444Z,55.10
2019-04-16T09:29:25.879Z,55.80
2019-04-16T09:31:59.737Z,54.70
2019-04-16T09:34:35.656Z,55.00
2019-04-16T09:37:14.769Z,55.20
2019-04-16T09:39:46.692Z,54.40
2019-04-16T09:42:16.258Z,54.10
2019-04-16T09:44:45.831Z,55.00
2019-04-16T09:47:15.413Z,54.00
2019-04-16T09:49:44.987Z,53.10
2019-04-16T09:52:14.554Z,54.20
2019-04-16T09:54:44.672Z,54.20
2019-04-16T09:57:16.321Z,54.70
2019-04-16T09:59:48.377Z,54.30
2019-04-16T10:02:23.753Z,55.00
2019-04-16T10:04:53.578Z,54.50
2019-04-16T10:07:23.176Z,53.90
2019-04-16T10:09:54.494Z,54.20
2019-04-16T10:12:25.100Z,54.30
2019-04-16T10:14:54.658Z,53.20
2019-04-16T10:17:24.420Z,52.50
2019-04-16T10:19:53.972Z,53.00
2019-04-16T10:22:23.549Z,52.90
2019-04-16T10:24:55.969Z,54.50
2019-04-16T10:27:31.488Z,53.60
2019-04-16T10:29:58.460Z,53.00
2019-04-16T10:32:29.205Z,52.30
2019-04-16T10:34:58.775Z,52.40
2019-04-16T10:37:28.360Z,52.70
2019-04-16T10:40:15.049Z,52.90
2019-04-16T10:43:02.640Z,52.30
2019-04-16T10:45:42.822Z,52.10
2019-04-16T10:48:18.157Z,52.10
2019-04-16T10:51:05.593Z,52.10
2019-04-16T10:53:45.473Z,52.70
2019-04-16T10:56:28.719Z,51.70
2019-04-16T10:58:58.077Z,51.70
2019-04-16T11:01:34.684Z,52.20
2019-04-16T11:04:04.863Z,52.40
2019-04-16T11:06:35.146Z,51.90
2019-04-16T11:09:08.030Z,51.90
2019-04-16T11:11:37.683Z,52.00
2019-04-16T11:14:07.377Z,51.70
2019-04-16T11:16:38.739Z,51.70
2019-04-16T11:19:08.385Z,51.70
2019-04-16T11:21:37.958Z,51.10
2019-04-16T11:24:07.553Z,52.50
2019-04-16T11:26:37.118Z,52.10
2019-04-16T11:29:07.031Z,50.80
2019-04-16T11:31:37.626Z,51.20
2019-04-16T11:34:07.933Z,51.50
2019-04-16T11:36:37.517Z,50.50
2019-04-16T11:39:10.542Z,50.40
2019-04-16T11:41:40.439Z,50.00
2019-04-16T11:44:15.684Z,50.00
2019-04-16T11:46:41.374Z,50.80
2019-04-16T11:49:10.935Z,50.30
2019-04-16T11:51:40.519Z,50.10
2019-04-16T11:54:11.780Z,49.20
2019-04-16T11:56:43.049Z,48.70
2019-04-16T11:59:12.650Z,48.70
2019-04-16T12:01:43.915Z,49.80
2019-04-16T12:04:21.299Z,49.40
2019-04-16T12:06:52.534Z,49.00
2019-04-16T12:09:31.366Z,49.20
2019-04-16T12:12:05.368Z,48.30
2019-04-16T12:14:42.134Z,48.50
2019-04-16T12:17:21.232Z,48.60
2019-04-16T12:19:55.745Z,48.70
2019-04-16T12:22:25.231Z,48.30
2019-04-16T12:24:59.434Z,47.90
2019-04-16T12:27:34.188Z,48.00
2019-04-16T12:30:23.950Z,47.40
2019-04-16T12:33:14.444Z,47.00
2019-04-16T12:35:45.883Z,47.00
2019-04-16T12:38:19.818Z,46.70
2019-04-16T12:40:51.898Z,47.10
2019-04-16T12:43:23.180Z,47.30
2019-04-16T12:46:12.735Z,46.40
2019-04-16T12:48:53.770Z,47.00
2019-04-16T12:51:31.212Z,48.40
2019-04-16T12:54:19.097Z,46.60
2019-04-16T12:57:06.249Z,46.80
2019-04-16T12:59:40.522Z,46.30
2019-04-16T13:02:14.391Z,46.60
2019-04-16T13:04:48.299Z,45.90
2019-04-16T13:07:21.448Z,46.70
2019-04-16T13:09:58.346Z,46.70
2019-04-16T13:12:38.560Z,45.60
2019-04-16T13:15:19.474Z,45.40
2019-04-16T13:18:02.938Z,45.80
2019-04-16T13:20:32.361Z,46.00
2019-04-16T13:23:19.997Z,46.40
2019-04-16T13:25:55.077Z,45.10
2019-04-16T13:28:24.736Z,44.40
2019-04-16T13:30:54.288Z,43.10
2019-04-16T13:33:23.861Z,44.70
2019-04-16T13:35:54.776Z,44.30
2019-04-16T13:38:45.769Z,44.10
2019-04-16T13:41:16.673Z,44.20
2019-04-16T13:43:50.314Z,45.40
2019-04-16T13:46:19.917Z,45.80
2019-04-16T13:49:00.711Z,45.50
2019-04-16T13:51:35.420Z,46.00
2019-04-16T13:54:12.936Z,45.70
2019-04-16T13:56:44.154Z,45.50
2019-04-16T13:59:41.104Z,44.20
2019-04-16T14:02:18.627Z,43.90
2019-04-16T14:04:46.593Z,42.00
2019-04-16T14:07:16.180Z,43.50
2019-04-16T14:09:45.748Z,44.40
2019-04-16T14:12:15.337Z,44.10
2019-04-16T14:14:46.743Z,42.20
2019-04-16T14:17:18.588Z,42.70
2019-04-16T14:19:49.698Z,44.20
2019-04-16T14:22:21.868Z,43.50
2019-04-16T14:24:52.152Z,39.10
2019-04-16T14:27:21.778Z,37.10
2019-04-16T14:29:51.359Z,33.40
2019-04-16T14:32:21.000Z,32.90
2019-04-16T14:34:55.000Z,32.60
2019-04-16T14:37:24.629Z,32.10
2019-04-16T14:39:55.915Z,32.70
2019-04-16T14:42:25.490Z,35.30
2019-04-16T14:44:56.783Z,37.50
2019-04-16T14:47:26.850Z,40.50
2019-04-16T14:49:58.101Z,41.20
2019-04-16T14:52:27.675Z,41.80
2019-04-16T14:55:04.910Z,42.60
2019-04-16T14:57:36.188Z,42.80
2019-04-16T15:00:25.021Z,44.00
2019-04-16T15:03:05.707Z,43.40
2019-04-16T15:05:37.120Z,41.70
2019-04-16T15:08:23.015Z,39.80
2019-04-16T15:10:56.768Z,38.30
2019-04-16T15:13:33.476Z,38.00
2019-04-16T15:16:09.410Z,38.10
2019-04-16T15:18:55.207Z,39.90
2019-04-16T15:21:27.435Z,40.40
2019-04-16T15:24:05.723Z,40.30
2019-04-16T15:26:55.264Z,39.70
2019-04-16T15:29:32.564Z,39.30
2019-04-16T15:32:15.757Z,39.60
2019-04-16T15:34:46.962Z,40.10
2019-04-16T15:37:18.561Z,40.10
2019-04-16T15:39:49.766Z,40.50
2019-04-16T15:42:20.994Z,42.20
2019-04-16T15:45:00.883Z,43.40
2019-04-16T15:47:32.421Z,44.50
2019-04-16T15:50:04.390Z,45.30
2019-04-16T15:52:46.542Z,45.60
2019-04-16T15:55:16.099Z,46.10
2019-04-16T15:57:47.333Z,46.80
2019-04-16T16:00:37.233Z,46.70
2019-04-16T16:03:09.181Z,47.30
2019-04-16T16:05:43.416Z,48.20
2019-04-16T16:08:12.759Z,48.40
2019-04-16T16:10:55.914Z,48.00
2019-04-16T16:13:26.327Z,47.80
2019-04-16T16:15:56.794Z,47.70
2019-04-16T16:18:26.441Z,48.20
2019-04-16T16:20:56.016Z,48.50
2019-04-16T16:23:25.604Z,49.00
2019-04-16T16:25:55.178Z,49.30
2019-04-16T16:28:24.834Z,50.30
2019-04-16T16:30:54.408Z,50.40
2019-04-16T16:33:23.988Z,50.30
2019-04-16T16:35:58.556Z,50.20
2019-04-16T16:38:25.894Z,50.40
2019-04-16T16:40:55.469Z,50.80
2019-04-16T16:43:25.065Z,51.20
2019-04-16T16:46:05.253Z,51.70
2019-04-16T16:48:34.904Z,51.90
2019-04-16T16:51:04.614Z,52.20
2019-04-16T16:53:33.965Z,52.10
2019-04-16T16:56:05.176Z,52.60
2019-04-16T16:58:46.234Z,52.50
2019-04-16T17:01:23.395Z,52.30
2019-04-16T17:03:54.731Z,52.70
2019-04-16T17:06:26.270Z,52.70
2019-04-16T17:08:56.193Z,52.90
2019-04-16T17:11:25.873Z,53.10
2019-04-16T17:13:58.068Z,53.70
2019-04-16T17:16:26.843Z,54.00
2019-04-16T17:18:56.435Z,54.10
2019-04-16T17:21:26.018Z,54.40
2019-04-16T17:23:55.645Z,55.10
2019-04-16T17:26:25.349Z,55.60
2019-04-16T17:28:55.015Z,56.00
2019-04-16T17:31:24.663Z,56.30
2019-04-16T17:33:54.303Z,56.40
2019-04-16T17:36:23.895Z,56.70
2019-04-16T17:38:53.883Z,56.60
2019-04-16T17:41:25.151Z,57.10
2019-04-16T17:44:01.857Z,57.10
2019-04-16T17:46:45.969Z,57.20
2019-04-16T17:49:29.198Z,57.60
2019-04-16T17:52:02.992Z,57.50
2019-04-16T17:54:42.880Z,57.80
2019-04-16T17:57:30.208Z,57.80
2019-04-16T18:00:19.974Z,58.00
2019-04-16T18:02:57.161Z,58.10
2019-04-16T18:05:28.379Z,58.10
2019-04-16T18:08:16.864Z,59.30
2019-04-16T18:10:50.826Z,60.80
2019-04-16T18:13:31.861Z,61.50
2019-04-16T18:16:01.742Z,61.90
2019-04-16T18:18:36.718Z,62.40
2019-04-16T18:21:24.556Z,63.10
2019-04-16T18:24:27.521Z,63.50
2019-04-16T18:27:15.289Z,63.90
2019-04-16T18:29:49.132Z,64.20
2019-04-16T18:32:22.946Z,64.60
2019-04-16T18:34:56.078Z,64.90
2019-04-16T18:37:37.286Z,65.10
2019-04-16T18:40:19.507Z,65.50
2019-04-16T18:42:51.841Z,65.60
2019-04-16T18:45:23.847Z,65.70
2019-04-16T18:48:02.932Z,65.90
2019-04-16T18:50:28.408Z,66.20
2019-04-16T18:53:02.872Z,66.10
2019-04-16T18:55:32.434Z,66.40
2019-04-16T18:58:02.085Z,67.20
2019-04-16T19:00:48.025Z,67.90
2019-04-16T19:03:17.663Z,68.50
2019-04-16T19:05:47.711Z,68.60
2019-04-16T19:08:17.439Z,68.50
2019-04-16T19:10:46.995Z,68.60
2019-04-16T19:13:19.757Z,68.70
2019-04-16T19:15:49.476Z,69.20
2019-04-16T19:18:20.338Z,69.50
2019-04-16T19:20:51.812Z,69.80
2019-04-16T19:23:22.267Z,69.60
2019-04-16T19:25:54.889Z,69.60
2019-04-16T19:28:24.951Z,69.30
2019-04-16T19:30:54.635Z,69.50
2019-04-16T19:33:24.840Z,69.60
2019-04-16T19:35:54.395Z,69.70
2019-04-16T19:38:23.972Z,69.90
2019-04-16T19:40:53.594Z,69.90
2019-04-16T19:43:23.169Z,70.00
2019-04-16T19:45:52.863Z,69.90
2019-04-16T19:48:34.652Z,69.80
2019-04-16T19:50:53.717Z,70.40
2019-04-16T19:53:23.298Z,70.20
2019-04-16T19:55:52.889Z,70.40
2019-04-16T19:58:22.453Z,70.60
2019-04-16T20:00:53.916Z,70.40
2019-04-16T20:03:23.323Z,70.90
2019-04-16T20:05:53.124Z,71.10
2019-04-16T20:08:22.762Z,71.50
2019-04-16T20:10:53.824Z,71.70
2019-04-16T20:13:23.400Z,72.00
2019-04-16T20:15:52.996Z,72.10
2019-04-16T20:18:31.123Z,72.60
2019-04-16T20:21:02.019Z,73.20
2019-04-16T20:23:31.850Z,73.60
2019-04-16T20:26:01.602Z,74.00
2019-04-16T20:28:31.174Z,75.00
2019-04-16T20:31:03.740Z,75.80
2019-04-16T20:33:32.952Z,76.20
2019-04-16T20:36:02.637Z,76.60
2019-04-16T20:38:34.630Z,76.80
2019-04-16T20:41:04.330Z,77.10
2019-04-16T20:43:33.900Z,77.30
2019-04-16T20:46:03.482Z,77.40
2019-04-16T20:48:33.110Z,77.30
2019-04-16T20:51:03.223Z,77.70
2019-04-16T20:53:32.789Z,78.00
2019-04-16T20:56:02.369Z,77.80
2019-04-16T20:58:32.396Z,78.20
2019-04-16T21:01:03.271Z,78.10
2019-04-16T21:03:32.806Z,78.40
2019-04-16T21:06:07.131Z,78.40
2019-04-16T21:08:33.667Z,78.70
2019-04-16T21:11:07.869Z,79.40
2019-04-16T21:13:34.646Z,79.40
2019-04-16T21:16:04.283Z,79.30
2019-04-16T21:18:33.865Z,79.90
2019-04-16T21:21:03.432Z,80.40
2019-04-16T21:23:34.729Z,81.50
2019-04-16T21:26:04.448Z,82.00
2019-04-16T21:28:41.351Z,83.30
2019-04-16T21:31:18.430Z,84.10
2019-04-16T21:33:52.273Z,84.50
2019-04-16T21:36:26.961Z,84.50
2019-04-16T21:39:10.157Z,85.30
2019-04-16T21:41:39.695Z,85.10
2019-04-16T21:44:12.979Z,85.30
2019-04-16T21:46:40.586Z,85.20
2019-04-16T21:49:10.160Z,85.00
2019-04-16T21:51:41.384Z,86.90
2019-04-16T21:54:11.427Z,85.60
2019-04-16T21:56:41.001Z,85.40
2019-04-16T21:59:11.571Z,85.70
2019-04-16T22:01:42.761Z,85.70
2019-04-16T22:04:14.670Z,85.30
2019-04-16T22:06:44.296Z,85.90
2019-04-16T22:09:13.860Z,85.90
2019-04-16T22:11:44.383Z,85.70
2019-04-16T22:14:13.976Z,85.80
2019-04-16T22:16:43.564Z,86.00
2019-04-16T22:19:15.009Z,86.20
2019-04-16T22:21:45.389Z,86.80
2019-04-16T22:24:14.960Z,86.80
2019-04-16T22:26:44.538Z,86.20
2019-04-16T22:29:15.670Z,86.00
2019-04-16T22:31:45.411Z,85.90
2019-04-16T22:34:14.989Z,86.10
2019-04-16T22:36:44.551Z,86.10
2019-04-16T22:39:19.571Z,86.50
2019-04-16T22:41:53.173Z,87.00
2019-04-16T22:44:24.387Z,87.10
2019-04-16T22:46:55.592Z,87.20
2019-04-16T22:49:25.167Z,87.30
2019-04-16T22:51:54.755Z,87.00
2019-04-16T22:54:24.326Z,86.20
2019-04-16T22:57:02.807Z,86.50
2019-04-16T22:59:32.668Z,86.30
2019-04-16T23:02:03.869Z,87.30
2019-04-16T23:04:33.436Z,87.60
2019-04-16T23:07:03.080Z,87.50
2019-04-16T23:09:32.645Z,87.60
2019-04-16T23:12:02.224Z,87.90
2019-04-16T23:14:34.866Z,88.40
2019-04-16T23:17:03.206Z,88.50
2019-04-16T23:19:32.740Z,88.00
2019-04-16T23:22:02.320Z,88.20
2019-04-16T23:24:31.878Z,88.30
2019-04-16T23:27:04.530Z,88.80
2019-04-16T23:29:32.745Z,89.40
2019-04-16T23:32:02.304Z,88.90
2019-04-16T23:34:37.495Z,88.90
2019-04-16T23:37:03.326Z,88.70
2019-04-16T23:39:33.580Z,88.10
2019-04-16T23:42:05.177Z,87.80
2019-04-16T23:44:34.601Z,87.30
2019-04-16T23:47:11.913Z,87.40
2019-04-16T23:49:43.200Z,87.00
2019-04-16T23:52:14.403Z,86.50
2019-04-16T23:54:54.386Z,86.50
2019-04-16T23:57:28.258Z,86.70
2019-04-16T23:59:57.602Z,88.20
